createdAt,value
2023-04-07T00:00:26.754Z,56.00
2023-04-07T00:02:53.952Z,56.20
2023-04-07T00:05:20.908Z,55.90
2023-04-07T00:07:55.986Z,55.90
2023-04-07T00:10:23.943Z,55.90
2023-04-07T00:12:50.821Z,55.90
2023-04-07T00:15:17.744Z,55.90
2023-04-07T00:17:44.516Z,56.10
2023-04-07T00:20:11.800Z,55.80
2023-04-07T00:22:38.602Z,55.90
2023-04-07T00:25:06.004Z,56.00
2023-04-07T00:27:32.698Z,55.90
2023-04-07T00:29:59.490Z,55.90
2023-04-07T00:32:26.203Z,55.90
2023-04-07T00:34:52.943Z,55.90
2023-04-07T00:37:19.641Z,55.90
2023-04-07T00:39:46.930Z,55.90
2023-04-07T00:42:13.886Z,55.80
2023-04-07T00:44:40.886Z,55.90
2023-04-07T00:47:08.301Z,55.80
2023-04-07T00:49:36.733Z,55.80
2023-04-07T00:52:04.936Z,55.80
2023-04-07T00:54:31.765Z,55.80
2023-04-07T00:56:58.531Z,55.90
2023-04-07T00:59:25.792Z,55.90
2023-04-07T01:02:04.133Z,55.80
2023-04-07T01:04:56.128Z,55.90
2023-04-07T01:07:24.369Z,55.90
2023-04-07T01:10:14.181Z,55.90
2023-04-07T01:13:01.411Z,55.80
2023-04-07T01:15:30.799Z,55.90
2023-04-07T01:18:12.738Z,55.90
2023-04-07T01:20:43.276Z,55.90
2023-04-07T01:23:21.578Z,55.80
2023-04-07T01:26:18.746Z,55.90
2023-04-07T01:29:26.476Z,55.90
2023-04-07T01:31:56.783Z,55.90
2023-04-07T01:34:26.761Z,55.80
2023-04-07T01:36:56.022Z,55.80
2023-04-07T01:39:23.590Z,55.90
2023-04-07T01:41:53.259Z,55.90
2023-04-07T01:44:21.189Z,55.90
2023-04-07T01:46:51.022Z,55.90
2023-04-07T01:49:19.181Z,55.90
2023-04-07T01:51:50.396Z,55.80
2023-04-07T01:54:18.379Z,55.90
2023-04-07T01:56:45.354Z,55.90
2023-04-07T01:59:12.727Z,55.90
2023-04-07T02:01:40.547Z,55.90
2023-04-07T02:04:32.331Z,55.90
2023-04-07T02:07:06.155Z,55.90
2023-04-07T02:09:40.407Z,55.90
2023-04-07T02:12:11.598Z,55.90
2023-04-07T02:14:42.379Z,55.90
2023-04-07T02:17:14.718Z,55.90
2023-04-07T02:19:43.636Z,55.90
2023-04-07T02:22:11.135Z,55.90
2023-04-07T02:24:41.048Z,56.00
2023-04-07T02:27:07.756Z,55.90
2023-04-07T02:29:34.454Z,55.90
2023-04-07T02:32:01.212Z,55.90
2023-04-07T02:34:29.490Z,55.90
2023-04-07T02:36:56.188Z,55.90
2023-04-07T02:39:22.881Z,55.90
2023-04-07T02:41:49.684Z,56.00
2023-04-07T02:44:16.399Z,56.00
2023-04-07T02:46:43.131Z,56.00
2023-04-07T02:49:09.878Z,56.00
2023-04-07T02:51:38.333Z,56.00
2023-04-07T02:54:05.048Z,56.00
2023-04-07T02:56:32.672Z,56.00
2023-04-07T02:58:59.769Z,56.00
2023-04-07T03:01:27.874Z,56.10
2023-04-07T03:03:54.870Z,56.10
2023-04-07T03:06:24.423Z,56.10
2023-04-07T03:09:20.431Z,56.20
2023-04-07T03:11:47.160Z,56.20
2023-04-07T03:14:13.965Z,56.10
2023-04-07T03:16:49.232Z,56.10
2023-04-07T03:19:16.833Z,56.30
2023-04-07T03:21:47.191Z,56.30
2023-04-07T03:24:13.887Z,56.50
2023-04-07T03:26:40.581Z,56.50
2023-04-07T03:29:15.997Z,56.40
2023-04-07T03:31:43.587Z,56.40
2023-04-07T03:34:13.060Z,56.40
2023-04-07T03:36:39.705Z,56.40
2023-04-07T03:39:06.647Z,56.40
2023-04-07T03:41:33.611Z,56.40
2023-04-07T03:44:00.456Z,56.50
2023-04-07T03:46:29.234Z,56.60
2023-04-07T03:48:56.359Z,56.50
2023-04-07T03:51:23.836Z,56.60
2023-04-07T03:53:55.330Z,56.80
2023-04-07T03:56:42.491Z,56.60
2023-04-07T03:59:09.320Z,56.80
2023-04-07T04:01:42.325Z,56.70
2023-04-07T04:04:15.789Z,56.80
2023-04-07T04:06:43.104Z,56.80
2023-04-07T04:09:35.812Z,57.00
2023-04-07T04:12:02.886Z,57.00
2023-04-07T04:14:31.397Z,56.90
2023-04-07T04:17:01.171Z,57.00
2023-04-07T04:19:37.519Z,57.10
2023-04-07T04:22:12.939Z,57.20
2023-04-07T04:24:48.419Z,57.00
2023-04-07T04:27:15.446Z,57.10
2023-04-07T04:29:43.892Z,57.20
2023-04-07T04:32:12.976Z,57.30
2023-04-07T04:34:42.180Z,57.30
2023-04-07T04:37:10.304Z,57.30
2023-04-07T04:39:38.206Z,57.40
2023-04-07T04:42:05.825Z,57.40
2023-04-07T04:44:35.562Z,57.40
2023-04-07T04:47:03.953Z,57.30
2023-04-07T04:49:32.061Z,57.50
2023-04-07T04:52:02.265Z,57.50
2023-04-07T04:54:34.370Z,58.10
2023-04-07T04:57:01.608Z,57.60
2023-04-07T04:59:28.795Z,57.70
2023-04-07T05:02:02.012Z,57.60
2023-04-07T05:04:28.913Z,57.70
2023-04-07T05:07:17.932Z,57.70
2023-04-07T05:09:44.811Z,57.70
2023-04-07T05:12:11.525Z,57.70
2023-04-07T05:14:43.426Z,57.70
2023-04-07T05:17:10.581Z,57.70
2023-04-07T05:19:38.256Z,57.70
2023-04-07T05:22:12.665Z,57.70
2023-04-07T05:24:45.289Z,57.70
2023-04-07T05:27:12.197Z,57.80
2023-04-07T05:29:40.601Z,57.80
2023-04-07T05:32:12.470Z,57.80
2023-04-07T05:34:40.015Z,57.90
2023-04-07T05:37:07.026Z,57.90
2023-04-07T05:39:34.340Z,57.90
2023-04-07T05:42:03.959Z,57.90
2023-04-07T05:44:30.933Z,57.90
2023-04-07T05:46:57.629Z,57.90
2023-04-07T05:49:26.497Z,58.00
2023-04-07T05:52:01.152Z,58.00
2023-04-07T05:54:27.971Z,58.00
2023-04-07T05:56:54.786Z,58.10
2023-04-07T05:59:22.731Z,58.10
2023-04-07T06:01:51.422Z,58.10
2023-04-07T06:04:18.647Z,58.10
2023-04-07T06:06:48.299Z,58.10
2023-04-07T06:09:15.084Z,58.10
2023-04-07T06:11:42.556Z,58.20
2023-04-07T06:14:09.732Z,58.20
2023-04-07T06:16:36.613Z,58.20
2023-04-07T06:19:03.648Z,58.20
2023-04-07T06:21:31.433Z,58.30
2023-04-07T06:23:58.109Z,58.20
2023-04-07T06:26:25.162Z,58.30
2023-04-07T06:28:52.537Z,58.30
2023-04-07T06:31:20.112Z,58.30
2023-04-07T06:33:47.228Z,58.30
2023-04-07T06:36:14.233Z,58.30
2023-04-07T06:38:40.933Z,58.40
2023-04-07T06:41:11.577Z,58.40
2023-04-07T06:43:38.360Z,58.40
2023-04-07T06:46:07.505Z,58.40
2023-04-07T06:48:34.284Z,58.40
2023-04-07T06:51:00.947Z,58.40
2023-04-07T06:53:27.649Z,58.50
2023-04-07T06:56:11.400Z,58.50
2023-04-07T06:58:38.551Z,58.50
2023-04-07T07:01:06.354Z,58.60
2023-04-07T07:03:33.511Z,58.60
2023-04-07T07:06:01.041Z,58.60
2023-04-07T07:08:29.112Z,58.60
2023-04-07T07:10:56.256Z,58.60
2023-04-07T07:13:26.502Z,58.60
2023-04-07T07:15:53.362Z,58.60
2023-04-07T07:18:20.356Z,58.60
2023-04-07T07:20:47.011Z,58.70
2023-04-07T07:23:13.738Z,58.70
2023-04-07T07:25:40.863Z,58.70
2023-04-07T07:28:08.897Z,58.70
2023-04-07T07:30:35.560Z,58.70
2023-04-07T07:33:02.290Z,58.60
2023-04-07T07:35:29.017Z,58.70
2023-04-07T07:37:55.828Z,58.70
2023-04-07T07:40:22.553Z,58.80
2023-04-07T07:42:49.469Z,58.80
2023-04-07T07:45:17.562Z,58.80
2023-04-07T07:47:44.284Z,58.70
2023-04-07T07:50:11.127Z,58.70
2023-04-07T07:52:37.988Z,58.80
2023-04-07T07:55:04.989Z,58.70
2023-04-07T07:57:31.928Z,58.80
2023-04-07T07:59:58.675Z,58.70
2023-04-07T08:02:30.796Z,58.80
2023-04-07T08:04:58.194Z,58.70
2023-04-07T08:07:25.526Z,58.80
2023-04-07T08:09:52.170Z,58.90
2023-04-07T08:12:18.898Z,58.80
2023-04-07T08:14:45.680Z,58.80
2023-04-07T08:17:12.593Z,58.80
2023-04-07T08:19:39.316Z,58.80
2023-04-07T08:22:06.117Z,58.80
2023-04-07T08:24:32.836Z,58.90
2023-04-07T08:26:59.644Z,58.90
2023-04-07T08:29:26.304Z,59.00
2023-04-07T08:31:53.084Z,59.00
2023-04-07T08:34:21.172Z,58.90
2023-04-07T08:36:48.173Z,59.00
2023-04-07T08:39:15.037Z,59.00
2023-04-07T08:41:44.601Z,59.00
2023-04-07T08:44:11.520Z,59.20
2023-04-07T08:46:41.436Z,59.20
2023-04-07T08:49:14.045Z,59.10
2023-04-07T08:51:51.199Z,59.10
2023-04-07T08:54:19.050Z,59.60
2023-04-07T08:56:46.057Z,59.00
2023-04-07T08:59:14.580Z,59.00
2023-04-07T09:01:42.050Z,58.90
2023-04-07T09:04:10.534Z,59.00
2023-04-07T09:06:38.194Z,59.10
2023-04-07T09:09:08.472Z,59.00
2023-04-07T09:11:38.975Z,59.10
2023-04-07T09:14:05.912Z,59.00
2023-04-07T09:16:32.729Z,59.10
2023-04-07T09:18:59.858Z,59.00
2023-04-07T09:21:27.345Z,59.00
2023-04-07T09:23:54.173Z,59.10
2023-04-07T09:26:28.505Z,59.00
2023-04-07T09:28:58.144Z,59.10
2023-04-07T09:31:51.720Z,58.90
2023-04-07T09:34:28.940Z,59.10
2023-04-07T09:36:57.011Z,59.10
2023-04-07T09:39:24.374Z,59.00
2023-04-07T09:41:52.002Z,59.10
2023-04-07T09:44:19.794Z,59.10
2023-04-07T09:46:58.138Z,59.00
2023-04-07T09:49:26.211Z,59.10
2023-04-07T09:52:07.810Z,59.20
2023-04-07T09:54:38.771Z,59.10
2023-04-07T09:57:07.332Z,59.10
2023-04-07T09:59:36.640Z,59.20
2023-04-07T10:02:04.046Z,59.10
2023-04-07T10:04:31.188Z,59.10
2023-04-07T10:07:00.137Z,59.20
2023-04-07T10:09:28.127Z,59.30
2023-04-07T10:11:59.772Z,59.30
2023-04-07T10:14:28.513Z,59.30
2023-04-07T10:16:55.702Z,59.30
2023-04-07T10:19:23.218Z,59.40
2023-04-07T10:21:53.121Z,59.30
2023-04-07T10:24:33.626Z,59.30
2023-04-07T10:27:04.827Z,59.20
2023-04-07T10:29:37.068Z,59.30
2023-04-07T10:32:04.453Z,59.30
2023-04-07T10:34:50.079Z,59.30
2023-04-07T10:37:21.015Z,59.40
2023-04-07T10:39:52.720Z,59.40
2023-04-07T10:42:38.680Z,59.30
2023-04-07T10:45:09.673Z,59.40
2023-04-07T10:48:00.652Z,59.30
2023-04-07T10:50:28.446Z,59.30
2023-04-07T10:53:12.055Z,59.30
2023-04-07T10:55:43.822Z,59.30
2023-04-07T10:58:37.316Z,59.20
2023-04-07T11:01:06.958Z,59.30
2023-04-07T11:03:42.715Z,59.20
2023-04-07T11:06:11.858Z,59.20
2023-04-07T11:08:43.616Z,59.20
2023-04-07T11:11:13.448Z,59.30
2023-04-07T11:13:50.806Z,59.30
2023-04-07T11:16:19.408Z,59.30
2023-04-07T11:18:47.860Z,59.30
2023-04-07T11:21:18.896Z,59.20
2023-04-07T11:23:47.050Z,59.20
2023-04-07T11:26:15.519Z,59.30
2023-04-07T11:28:50.126Z,59.20
2023-04-07T11:31:27.867Z,59.20
2023-04-07T11:33:56.220Z,59.10
2023-04-07T11:36:39.579Z,59.20
2023-04-07T11:39:17.656Z,59.30
2023-04-07T11:41:49.174Z,59.40
2023-04-07T11:44:15.999Z,59.50
2023-04-07T11:47:03.659Z,59.50
2023-04-07T11:49:31.677Z,59.40
2023-04-07T11:52:03.787Z,59.30
2023-04-07T11:54:43.370Z,59.40
2023-04-07T11:57:12.678Z,59.50
2023-04-07T11:59:41.100Z,59.50
2023-04-07T12:02:08.274Z,59.50
2023-04-07T12:07:09.200Z,59.50
2023-04-07T12:09:37.377Z,59.40
2023-04-07T12:12:06.432Z,59.40
2023-04-07T12:14:33.591Z,59.30
2023-04-07T12:17:03.259Z,59.40
2023-04-07T12:19:33.475Z,59.40
2023-04-07T12:22:00.559Z,59.50
2023-04-07T12:24:27.290Z,59.60
2023-04-07T12:26:54.064Z,59.60
2023-04-07T12:29:20.762Z,59.50
2023-04-07T12:31:50.121Z,59.50
2023-04-07T12:34:17.732Z,59.50
2023-04-07T12:36:44.644Z,59.40
2023-04-07T12:39:11.508Z,59.40
2023-04-07T12:41:38.739Z,59.40
2023-04-07T12:44:05.868Z,59.40
2023-04-07T12:46:32.712Z,59.50
2023-04-07T12:48:59.604Z,59.50
2023-04-07T12:51:27.077Z,59.50
2023-04-07T12:53:54.255Z,59.50
2023-04-07T12:56:24.090Z,59.50
2023-04-07T12:58:51.155Z,59.60
2023-04-07T13:01:17.910Z,59.60
2023-04-07T13:03:44.948Z,59.50
2023-04-07T13:06:12.128Z,59.50
2023-04-07T13:08:39.843Z,59.50
2023-04-07T13:11:07.051Z,59.50
2023-04-07T13:13:33.906Z,59.60
2023-04-07T13:16:01.153Z,59.50
2023-04-07T13:18:27.918Z,59.60
2023-04-07T13:21:16.592Z,59.90
2023-04-07T13:23:43.868Z,59.90
2023-04-07T13:26:11.410Z,59.80
2023-04-07T13:28:38.798Z,59.70
2023-04-07T13:31:05.659Z,59.70
2023-04-07T13:33:32.496Z,59.70
2023-04-07T13:35:59.172Z,59.70
2023-04-07T13:38:26.330Z,59.60
2023-04-07T13:40:52.963Z,59.60
2023-04-07T13:43:20.097Z,59.70
2023-04-07T13:45:46.891Z,59.90
2023-04-07T13:48:13.788Z,59.80
2023-04-07T13:50:40.887Z,59.90
2023-04-07T13:53:07.703Z,60.00
2023-04-07T13:55:34.395Z,60.20
2023-04-07T13:58:01.259Z,60.30
2023-04-07T14:00:27.982Z,60.20
2023-04-07T14:02:56.142Z,60.00
2023-04-07T14:05:23.499Z,59.90
2023-04-07T14:07:50.930Z,60.10
2023-04-07T14:10:17.846Z,60.10
2023-04-07T14:12:44.735Z,60.00
2023-04-07T14:15:11.689Z,60.00
2023-04-07T14:17:38.495Z,60.10
2023-04-07T14:20:06.094Z,60.00
2023-04-07T14:22:32.807Z,60.00
2023-04-07T14:24:59.637Z,60.10
2023-04-07T14:27:26.316Z,60.20
2023-04-07T14:29:54.048Z,60.30
2023-04-07T14:32:20.836Z,60.20
2023-04-07T14:34:47.866Z,60.20
2023-04-07T14:37:16.083Z,60.30
2023-04-07T14:39:48.520Z,60.30
2023-04-07T14:42:22.427Z,60.20
2023-04-07T14:44:49.994Z,60.10
2023-04-07T14:47:16.720Z,60.10
2023-04-07T14:49:43.413Z,60.20
2023-04-07T14:52:10.507Z,60.10
2023-04-07T14:54:37.275Z,60.10
2023-04-07T14:57:04.002Z,60.20
2023-04-07T14:59:30.703Z,60.20
2023-04-07T15:01:57.419Z,60.20
2023-04-07T15:04:24.357Z,60.30
2023-04-07T15:06:51.145Z,60.10
2023-04-07T15:09:19.055Z,60.20
2023-04-07T15:11:46.085Z,60.30
2023-04-07T15:14:12.832Z,60.90
2023-04-07T15:16:39.566Z,60.30
2023-04-07T15:19:06.317Z,60.40
2023-04-07T15:21:32.972Z,61.00
2023-04-07T15:23:59.651Z,60.30
2023-04-07T15:26:26.675Z,60.30
2023-04-07T15:28:53.395Z,60.30
2023-04-07T15:31:21.580Z,60.40
2023-04-07T15:33:48.460Z,60.60
2023-04-07T15:36:15.284Z,60.60
2023-04-07T15:38:42.154Z,60.60
2023-04-07T15:41:08.943Z,60.50
2023-04-07T15:43:37.435Z,60.30
2023-04-07T15:46:04.158Z,60.40
2023-04-07T15:48:30.983Z,60.50
2023-04-07T15:50:57.668Z,60.60
2023-04-07T15:53:24.411Z,60.50
2023-04-07T15:55:51.414Z,60.60
2023-04-07T15:58:18.079Z,60.40
2023-04-07T16:00:44.869Z,60.50
2023-04-07T16:03:11.848Z,60.40
2023-04-07T16:05:38.887Z,60.40
2023-04-07T16:08:05.668Z,60.30
2023-04-07T16:10:32.484Z,60.30
2023-04-07T16:12:59.144Z,60.30
2023-04-07T16:17:59.765Z,60.50
2023-04-07T16:20:26.920Z,60.60
2023-04-07T16:22:53.913Z,60.50
2023-04-07T16:25:20.704Z,60.60
2023-04-07T16:27:47.447Z,60.60
2023-04-07T16:30:15.530Z,60.70
2023-04-07T16:32:46.678Z,60.70
2023-04-07T16:35:16.990Z,60.80
2023-04-07T16:37:46.151Z,60.60
2023-04-07T16:40:13.468Z,60.60
2023-04-07T16:42:40.807Z,60.60
2023-04-07T16:45:08.046Z,60.80
2023-04-07T16:47:35.369Z,60.90
2023-04-07T16:50:04.490Z,61.00
2023-04-07T16:52:31.719Z,60.90
2023-04-07T16:54:59.306Z,60.70
2023-04-07T16:57:26.030Z,60.80
2023-04-07T16:59:52.752Z,60.90
2023-04-07T17:02:19.727Z,60.80
2023-04-07T17:04:46.694Z,60.70
2023-04-07T17:07:13.876Z,60.70
2023-04-07T17:09:40.644Z,60.80
2023-04-07T17:12:07.421Z,60.90
2023-04-07T17:14:34.616Z,60.80
2023-04-07T17:17:01.765Z,60.80
2023-04-07T17:19:28.938Z,60.80
2023-04-07T17:21:55.939Z,60.70
2023-04-07T17:24:22.610Z,60.70
2023-04-07T17:26:49.382Z,60.80
2023-04-07T17:29:16.990Z,60.90
2023-04-07T17:31:43.915Z,60.80
2023-04-07T17:34:11.763Z,60.90
2023-04-07T17:36:38.947Z,60.90
2023-04-07T17:39:05.920Z,60.80
2023-04-07T17:41:34.502Z,60.80
2023-04-07T17:44:01.411Z,60.80
2023-04-07T17:46:28.178Z,60.80
2023-04-07T17:48:55.060Z,60.80
2023-04-07T17:51:21.801Z,60.90
2023-04-07T17:53:48.697Z,60.90
2023-04-07T17:56:15.548Z,60.80
2023-04-07T17:58:42.264Z,60.70
2023-04-07T18:01:12.693Z,60.80
2023-04-07T18:03:40.000Z,60.70
2023-04-07T18:06:08.422Z,60.70
2023-04-07T18:08:35.232Z,60.70
2023-04-07T18:11:01.958Z,60.70
2023-04-07T18:13:28.673Z,60.70
2023-04-07T18:15:55.397Z,60.70
2023-04-07T18:18:22.188Z,60.70
2023-04-07T18:20:49.680Z,60.70
2023-04-07T18:23:16.353Z,60.70
2023-04-07T18:25:43.053Z,60.70
2023-04-07T18:28:11.744Z,60.70
2023-04-07T18:30:39.069Z,60.70
2023-04-07T18:33:05.839Z,60.70
2023-04-07T18:35:32.770Z,60.70
2023-04-07T18:37:59.770Z,60.70
2023-04-07T18:40:26.547Z,60.80
2023-04-07T18:42:53.385Z,60.70
2023-04-07T18:45:20.229Z,60.80
2023-04-07T18:47:47.608Z,60.80
2023-04-07T18:50:14.470Z,60.80
2023-04-07T18:52:41.154Z,60.70
2023-04-07T18:55:10.785Z,60.80
2023-04-07T18:57:39.340Z,60.70
2023-04-07T19:00:06.638Z,60.80
2023-04-07T19:02:33.546Z,60.90
2023-04-07T19:05:01.671Z,60.90
2023-04-07T19:07:28.354Z,60.80
2023-04-07T19:09:55.413Z,60.80
2023-04-07T19:12:22.225Z,60.90
2023-04-07T19:14:48.955Z,60.80
2023-04-07T19:17:16.261Z,60.80
2023-04-07T19:19:42.942Z,61.00
2023-04-07T19:22:09.651Z,60.90
2023-04-07T19:24:36.748Z,61.00
2023-04-07T19:27:04.170Z,61.00
2023-04-07T19:29:31.258Z,60.90
2023-04-07T19:31:58.069Z,61.00
2023-04-07T19:34:24.744Z,61.00
2023-04-07T19:36:51.606Z,61.10
2023-04-07T19:39:18.353Z,61.00
2023-04-07T19:41:45.047Z,61.00
2023-04-07T19:44:11.866Z,61.00
2023-04-07T19:46:38.533Z,61.10
2023-04-07T19:49:05.211Z,61.10
2023-04-07T19:51:32.926Z,61.00
2023-04-07T19:53:59.645Z,61.10
2023-04-07T19:56:26.347Z,61.10
2023-04-07T19:58:53.293Z,61.20
2023-04-07T20:01:20.072Z,61.20
2023-04-07T20:03:46.996Z,61.20
2023-04-07T20:06:15.120Z,61.10
2023-04-07T20:08:42.466Z,61.20
2023-04-07T20:11:13.071Z,61.10
2023-04-07T20:13:41.080Z,61.30
2023-04-07T20:16:08.933Z,61.20
2023-04-07T20:18:35.739Z,61.20
2023-04-07T20:21:05.684Z,61.20
2023-04-07T20:23:33.620Z,61.20
2023-04-07T20:26:01.593Z,61.20
2023-04-07T20:28:28.417Z,61.30
2023-04-07T20:30:55.237Z,61.30
2023-04-07T20:33:22.096Z,61.20
2023-04-07T20:35:49.458Z,61.30
2023-04-07T20:38:16.426Z,61.30
2023-04-07T20:40:43.192Z,61.30
2023-04-07T20:43:09.970Z,61.30
2023-04-07T20:45:36.643Z,61.40
2023-04-07T20:48:03.554Z,61.40
2023-04-07T20:50:30.485Z,61.40
2023-04-07T20:52:57.318Z,61.40
2023-04-07T20:55:24.034Z,61.40
2023-04-07T20:57:50.811Z,61.40
2023-04-07T21:00:19.042Z,61.40
2023-04-07T21:02:46.883Z,61.50
2023-04-07T21:05:13.794Z,61.40
2023-04-07T21:07:40.463Z,61.60
2023-04-07T21:10:08.666Z,61.50
2023-04-07T21:12:36.393Z,61.60
2023-04-07T21:15:03.325Z,61.50
2023-04-07T21:17:30.192Z,61.70
2023-04-07T21:19:56.942Z,61.60
2023-04-07T21:22:23.800Z,61.60
2023-04-07T21:24:52.906Z,61.70
2023-04-07T21:27:19.632Z,61.80
2023-04-07T21:29:46.347Z,61.70
2023-04-07T21:32:13.927Z,61.80
2023-04-07T21:34:40.885Z,61.70
2023-04-07T21:37:07.823Z,61.70
2023-04-07T21:39:35.034Z,61.80
2023-04-07T21:42:02.005Z,61.80
2023-04-07T21:44:28.705Z,61.90
2023-04-07T21:46:55.430Z,61.80
2023-04-07T21:49:22.394Z,61.90
2023-04-07T21:51:49.197Z,61.90
2023-04-07T21:54:15.976Z,61.90
2023-04-07T21:56:42.850Z,62.00
2023-04-07T21:59:09.517Z,61.90
2023-04-07T22:01:36.231Z,61.90
2023-04-07T22:04:03.146Z,61.90
2023-04-07T22:06:29.992Z,62.00
2023-04-07T22:09:01.578Z,62.00
2023-04-07T22:11:29.399Z,62.00
2023-04-07T22:13:56.072Z,62.70
2023-04-07T22:16:22.909Z,62.00
2023-04-07T22:18:50.199Z,62.00
2023-04-07T22:21:17.228Z,62.00
2023-04-07T22:23:44.673Z,62.10
2023-04-07T22:26:11.492Z,62.10
2023-04-07T22:28:38.264Z,62.10
2023-04-07T22:31:05.605Z,62.10
2023-04-07T22:33:32.347Z,62.10
2023-04-07T22:35:59.104Z,62.10
2023-04-07T22:38:25.920Z,62.10
2023-04-07T22:40:52.568Z,62.10
2023-04-07T22:43:19.225Z,62.10
2023-04-07T22:45:46.237Z,62.70
2023-04-07T22:48:13.285Z,62.10
2023-04-07T22:50:40.037Z,62.20
2023-04-07T22:53:07.273Z,62.10
2023-04-07T22:55:34.593Z,62.10
2023-04-07T22:58:01.702Z,62.20
2023-04-07T23:00:28.568Z,62.20
2023-04-07T23:02:55.573Z,62.20
2023-04-07T23:05:22.493Z,62.20
2023-04-07T23:07:51.246Z,62.20
2023-04-07T23:10:18.136Z,62.20
2023-04-07T23:12:44.816Z,62.10
2023-04-07T23:15:11.671Z,62.20
2023-04-07T23:17:38.413Z,62.20
2023-04-07T23:20:05.993Z,62.20
2023-04-07T23:22:32.685Z,62.10
2023-04-07T23:24:59.356Z,62.20
2023-04-07T23:27:26.043Z,62.20
2023-04-07T23:29:53.792Z,62.20
2023-04-07T23:32:21.474Z,62.10
2023-04-07T23:34:48.215Z,62.20
2023-04-07T23:37:14.944Z,62.20
2023-04-07T23:39:41.606Z,62.20
2023-04-07T23:42:08.372Z,62.20
2023-04-07T23:44:35.330Z,62.20
2023-04-07T23:47:02.103Z,62.20
2023-04-07T23:49:29.218Z,62.20
2023-04-07T23:51:55.972Z,62.20
2023-04-07T23:54:22.770Z,62.20
2023-04-07T23:56:49.520Z,62.20
2023-04-07T23:59:16.200Z,62.20
